Time;durP1;ratioP1;P1;durP2;ratioP2;P2;SDS_P1;SDS_P2;PMS_P1;PMS_P2;Temp;Humidity;BMP_temperature;BMP_pressure;BME280_temperature;BME280_humidity;BME280_pressure;Samples;Min_cycle;Max_cycle;Signal;HPM_P1;HPM_P2
2022/04/09 00:01:03;;;;;;;13.25;2.00;;;5.60;99.90;;;;;;5020138;28;20038;-79
2022/04/09 00:03:29;;;;;;;26.00;1.95;;;5.60;99.90;;;;;;5023363;28;20069;-80
2022/04/09 00:05:54;;;;;;;0.65;0.52;;;5.60;99.90;;;;;;5022467;28;20788;-79
2022/04/09 00:08:20;;;;;;;2.00;0.70;;;5.60;99.90;;;;;;5005820;28;20112;-80
2022/04/09 00:10:45;;;;;;;0.40;0.40;;;5.50;99.90;;;;;;5005312;28;20085;-80
2022/04/09 00:13:11;;;;;;;11.95;0.95;;;5.50;99.90;;;;;;5006026;28;20444;-80
2022/04/09 00:15:37;;;;;;;1.15;0.75;;;5.50;99.90;;;;;;5006178;28;20053;-80
2022/04/09 00:18:02;;;;;;;1.98;1.48;;;5.50;99.90;;;;;;5023175;28;20091;-80
2022/04/09 00:20:28;;;;;;;4.68;1.23;;;5.50;99.90;;;;;;5022067;28;20160;-80
2022/04/09 00:22:54;;;;;;;1.95;1.20;;;5.50;99.90;;;;;;5023452;28;20045;-80
2022/04/09 00:25:24;;;;;;;5.15;1.48;;;5.50;99.90;;;;;;5005116;28;20056;-80
2022/04/09 00:27:50;;;;;;;9.30;1.10;;;5.40;99.90;;;;;;5023028;28;20099;-80
2022/04/09 00:30:16;;;;;;;5.55;0.70;;;5.50;99.90;;;;;;5005283;28;20127;-79
2022/04/09 00:32:41;;;;;;;3.30;1.42;;;5.40;99.90;;;;;;5005659;28;20096;-80
2022/04/09 00:35:07;;;;;;;4.15;1.65;;;5.40;99.90;;;;;;5004838;28;20067;-80
2022/04/09 00:37:44;;;;;;;1.00;0.95;;;5.40;99.90;;;;;;5005396;28;20045;-79
2022/04/09 00:40:12;;;;;;;0.38;0.38;;;5.40;99.90;;;;;;5003521;28;20524;-80
2022/04/09 00:42:40;;;;;;;1.80;0.60;;;5.40;99.90;;;;;;5005745;28;20041;-79
2022/04/09 00:45:07;;;;;;;0.70;0.63;;;5.40;99.90;;;;;;5022771;28;20051;-79
2022/04/09 00:47:34;;;;;;;0.75;0.68;;;5.30;99.90;;;;;;5022620;28;20045;-79
2022/04/09 00:49:59;;;;;;;1.35;1.25;;;5.30;99.90;;;;;;5021824;28;20548;-79
2022/04/09 00:52:27;;;;;;;1.95;0.93;;;5.20;99.90;;;;;;5021029;28;20056;-79
2022/04/09 00:54:55;;;;;;;0.20;0.20;;;5.10;99.90;;;;;;5021678;28;20045;-79
2022/04/09 00:57:25;;;;;;;2.13;0.75;;;5.10;99.90;;;;;;5022094;28;20044;-79
2022/04/09 00:59:52;;;;;;;0.70;0.57;;;5.10;99.90;;;;;;5013961;28;20038;-79
2022/04/09 01:02:18;;;;;;;0.95;0.55;;;5.10;99.90;;;;;;5001699;28;20033;-79
2022/04/09 01:04:45;;;;;;;2.88;1.45;;;5.00;99.90;;;;;;5000507;28;20046;-80
2022/04/09 01:07:13;;;;;;;3.35;0.93;;;5.10;99.90;;;;;;4984078;28;20045;-79
2022/04/09 01:09:38;;;;;;;0.80;0.63;;;5.00;99.90;;;;;;5002614;28;20068;-79
2022/04/09 01:12:05;;;;;;;0.93;0.73;;;5.00;99.90;;;;;;5001464;28;20045;-79
2022/04/09 01:14:34;;;;;;;2.92;0.75;;;5.00;99.90;;;;;;5004499;28;20120;-79
2022/04/09 01:17:00;;;;;;;0.55;0.43;;;5.00;99.90;;;;;;5022129;28;20049;-80
2022/04/09 01:19:25;;;;;;;3.78;1.58;;;5.10;99.90;;;;;;5003437;28;20064;-79
2022/04/09 01:21:54;;;;;;;8.55;2.00;;;5.10;99.90;;;;;;5022718;28;20041;-79
2022/04/09 01:24:19;;;;;;;0.70;0.57;;;5.10;99.90;;;;;;5022122;28;20096;-80
2022/04/09 01:26:45;;;;;;;1.27;1.15;;;5.10;99.90;;;;;;5021871;28;20080;-79
2022/04/09 01:29:11;;;;;;;27.65;1.95;;;5.10;99.90;;;;;;5022102;28;20468;-79
2022/04/09 01:31:37;;;;;;;4.28;1.00;;;5.20;99.90;;;;;;5022326;28;20080;-79
2022/04/09 01:34:02;;;;;;;0.83;0.83;;;5.20;99.90;;;;;;5004371;28;20041;-80
2022/04/09 01:36:28;;;;;;;1.13;0.97;;;5.20;99.90;;;;;;5021599;28;20690;-79
2022/04/09 01:38:53;;;;;;;0.47;0.47;;;5.20;99.90;;;;;;5004501;28;20076;-79
2022/04/09 01:41:19;;;;;;;0.43;0.27;;;5.20;99.90;;;;;;4993089;28;20064;-80
2022/04/09 01:43:44;;;;;;;2.90;1.30;;;5.10;99.90;;;;;;5002084;28;20103;-79
2022/04/09 01:46:10;;;;;;;1.43;1.23;;;5.10;99.90;;;;;;5014813;28;20037;-78
2022/04/09 01:48:35;;;;;;;0.77;0.77;;;5.20;99.90;;;;;;5022496;28;20044;-79
2022/04/09 01:51:01;;;;;;;1.70;1.20;;;5.10;99.90;;;;;;5021196;28;20415;-79
2022/04/09 01:53:26;;;;;;;10.50;1.33;;;5.10;99.90;;;;;;5020216;28;20053;-79
2022/04/09 01:55:52;;;;;;;2.22;0.60;;;5.10;99.90;;;;;;5019892;28;20048;-79
2022/04/09 01:58:17;;;;;;;1.85;0.63;;;5.20;99.90;;;;;;4986854;28;20111;-79
2022/04/09 02:00:43;;;;;;;1.45;0.93;;;5.10;99.90;;;;;;5021905;28;20087;-79
2022/04/09 02:03:08;;;;;;;0.40;0.40;;;5.20;99.90;;;;;;5021488;28;20037;-80
2022/04/09 02:05:35;;;;;;;1.60;0.80;;;5.10;99.90;;;;;;5021521;28;20046;-79
2022/04/09 02:08:01;;;;;;;0.67;0.60;;;5.20;99.90;;;;;;5022023;28;20056;-79
2022/04/09 02:10:28;;;;;;;0.47;0.38;;;5.10;99.90;;;;;;5020802;28;20075;-80
2022/04/09 02:12:54;;;;;;;0.80;0.47;;;5.10;99.90;;;;;;5021905;28;20046;-80
2022/04/09 02:15:20;;;;;;;0.40;0.40;;;5.10;99.90;;;;;;5020982;28;20124;-79
2022/04/09 02:17:46;;;;;;;1.33;1.23;;;5.00;99.90;;;;;;5022308;28;20049;-79
2022/04/09 02:20:13;;;;;;;1.00;0.40;;;5.00;99.90;;;;;;5024772;28;20045;-80
2022/04/09 02:22:42;;;;;;;0.97;0.50;;;4.90;99.90;;;;;;5025496;28;20108;-80
2022/04/09 02:25:10;;;;;;;4.60;0.93;;;4.90;99.90;;;;;;5026240;28;20038;-79
2022/04/09 02:27:39;;;;;;;1.02;0.80;;;4.90;99.90;;;;;;5026313;28;20077;-79
2022/04/09 02:30:06;;;;;;;0.60;0.60;;;4.90;99.90;;;;;;5025455;28;20132;-80
2022/04/09 02:32:40;;;;;;;0.03;0.03;;;4.90;99.90;;;;;;5025047;28;20041;-79
2022/04/09 02:35:05;;;;;;;0.87;0.57;;;4.80;99.90;;;;;;5024622;28;20098;-79
2022/04/09 02:37:31;;;;;;;0.50;0.50;;;4.90;99.90;;;;;;5007185;28;20711;-79
2022/04/09 02:39:57;;;;;;;0.90;0.83;;;4.80;99.90;;;;;;5025219;28;20111;-79
2022/04/09 02:42:22;;;;;;;2.73;0.40;;;4.80;99.90;;;;;;4988272;28;20056;-80
2022/04/09 02:44:48;;;;;;;1.23;0.87;;;4.80;99.90;;;;;;4989223;28;20544;-79
2022/04/09 02:47:13;;;;;;;6.97;1.83;;;4.90;99.90;;;;;;5025122;28;20524;-79
2022/04/09 02:49:39;;;;;;;1.20;0.57;;;4.90;99.90;;;;;;5022715;28;20057;-79
2022/04/09 02:52:05;;;;;;;1.53;1.00;;;4.90;99.90;;;;;;5013357;28;20041;-79
2022/04/09 02:54:30;;;;;;;1.20;0.87;;;4.90;99.90;;;;;;5005080;28;20050;-79
2022/04/09 02:56:56;;;;;;;1.33;1.23;;;4.90;99.90;;;;;;5004687;28;20615;-79
2022/04/09 02:59:21;;;;;;;0.23;0.23;;;4.90;99.90;;;;;;4987435;28;20062;-80
2022/04/09 03:01:47;;;;;;;5.73;2.40;;;4.90;99.90;;;;;;5004750;28;20113;-79
2022/04/09 03:04:14;;;;;;;2.67;1.40;;;4.90;99.90;;;;;;5004507;28;20072;-79
2022/04/09 03:06:39;;;;;;;2.10;0.90;;;5.00;99.90;;;;;;5005171;28;20038;-79
2022/04/09 03:09:05;;;;;;;1.70;0.47;;;5.00;99.90;;;;;;5005486;28;20050;-79
2022/04/09 03:11:31;;;;;;;1.67;0.85;;;4.90;99.90;;;;;;5004544;28;20049;-79
2022/04/09 03:13:57;;;;;;;6.50;1.20;;;4.90;99.90;;;;;;4987244;28;20185;-79
2022/04/09 03:16:22;;;;;;;7.30;1.33;;;5.00;99.90;;;;;;5004724;28;20472;-80
2022/04/09 03:18:48;;;;;;;0.93;0.20;;;4.90;99.90;;;;;;5003963;28;20050;-79
2022/04/09 03:21:14;;;;;;;1.40;1.30;;;4.90;99.90;;;;;;5009761;28;20430;-80
2022/04/09 03:23:40;;;;;;;2.13;0.90;;;5.00;99.90;;;;;;5023918;28;20045;-80
2022/04/09 03:26:05;;;;;;;3.60;1.37;;;4.90;99.90;;;;;;5007092;28;20052;-79
2022/04/09 03:28:31;;;;;;;2.37;0.30;;;5.00;99.90;;;;;;5006362;28;20547;-79
2022/04/09 03:30:57;;;;;;;1.80;0.70;;;5.00;99.90;;;;;;5023402;28;20472;-79
2022/04/09 03:33:23;;;;;;;0.90;0.90;;;5.00;99.90;;;;;;5024308;28;20048;-79
2022/04/09 03:35:49;;;;;;;7.75;0.98;;;5.00;99.90;;;;;;5023020;28;20101;-80
2022/04/09 03:38:15;;;;;;;0.30;0.30;;;5.00;99.90;;;;;;5024133;28;20073;-80
2022/04/09 03:40:41;;;;;;;4.33;1.20;;;4.90;99.90;;;;;;5016750;28;20042;-79
2022/04/09 03:43:07;;;;;;;0.75;0.52;;;5.00;99.90;;;;;;5004814;28;20046;-79
2022/04/09 03:45:32;;;;;;;4.20;0.63;;;4.90;99.90;;;;;;4998736;28;20039;-80
2022/04/09 03:47:58;;;;;;;6.60;1.57;;;4.90;99.90;;;;;;5006209;28;20677;-79
2022/04/09 03:50:23;;;;;;;12.43;1.10;;;5.00;99.90;;;;;;5022719;28;20037;-79
2022/04/09 03:52:49;;;;;;;2.90;1.60;;;5.00;99.90;;;;;;5023359;28;20687;-79
2022/04/09 03:55:15;;;;;;;1.10;0.60;;;5.00;99.90;;;;;;5023509;28;20046;-80
2022/04/09 03:57:41;;;;;;;0.50;0.50;;;5.00;99.90;;;;;;5023715;28;20037;-80
2022/04/09 04:00:08;;;;;;;0.83;0.83;;;5.10;99.90;;;;;;5006489;28;20045;-79
2022/04/09 04:02:34;;;;;;;4.43;0.87;;;5.10;99.90;;;;;;5006574;28;20435;-79
2022/04/09 04:05:02;;;;;;;1.40;0.67;;;5.10;99.90;;;;;;5022873;28;20120;-79
2022/04/09 04:07:31;;;;;;;4.75;0.57;;;5.10;99.90;;;;;;5005804;28;20053;-79
2022/04/09 04:10:02;;;;;;;1.57;0.80;;;5.10;99.90;;;;;;5023192;28;20050;-79
2022/04/09 04:12:28;;;;;;;6.63;1.98;;;5.10;99.90;;;;;;5005763;28;20164;-79
2022/04/09 04:14:54;;;;;;;0.53;0.53;;;5.10;99.90;;;;;;5005870;28;20129;-80
2022/04/09 04:17:19;;;;;;;2.37;1.53;;;5.10;99.90;;;;;;5023192;28;20040;-79
2022/04/09 04:19:45;;;;;;;4.93;0.70;;;5.10;99.90;;;;;;5022400;28;20722;-79
2022/04/09 04:22:11;;;;;;;1.60;1.40;;;5.10;99.90;;;;;;4992740;28;20041;-79
2022/04/09 04:24:37;;;;;;;2.40;1.73;;;5.10;99.90;;;;;;5003949;28;20042;-79
2022/04/09 04:27:07;;;;;;;1.05;1.05;;;5.10;99.90;;;;;;4986362;28;20054;-79
2022/04/09 04:29:34;;;;;;;0.82;0.82;;;5.10;99.90;;;;;;5003464;28;20052;-79
2022/04/09 04:32:00;;;;;;;0.40;0.30;;;5.10;99.90;;;;;;5003160;28;20053;-79
2022/04/09 04:34:26;;;;;;;0.40;0.30;;;5.20;99.90;;;;;;4984879;28;20092;-79
2022/04/09 04:36:51;;;;;;;7.20;1.77;;;5.20;99.90;;;;;;5003005;28;20485;-78
2022/04/09 04:39:17;;;;;;;1.00;0.57;;;5.20;99.90;;;;;;4985528;28;20057;-79
2022/04/09 04:41:42;;;;;;;0.30;0.28;;;5.10;99.90;;;;;;5020067;28;20037;-79
2022/04/09 04:44:09;;;;;;;0.40;0.40;;;5.10;99.90;;;;;;5005217;28;20041;-79
2022/04/09 04:46:36;;;;;;;0.27;0.27;;;5.00;99.90;;;;;;5018690;28;20064;-79
2022/04/09 04:49:03;;;;;;;3.20;1.13;;;5.00;99.90;;;;;;5021636;28;20075;-79
2022/04/09 04:51:28;;;;;;;6.83;1.23;;;5.00;99.90;;;;;;5017223;28;20791;-79
2022/04/09 04:53:54;;;;;;;3.43;1.20;;;5.00;99.90;;;;;;5013766;28;20549;-78
2022/04/09 04:56:22;;;;;;;19.37;0.93;;;4.90;99.90;;;;;;5002674;28;20044;-77
2022/04/09 04:58:47;;;;;;;3.77;1.33;;;4.80;99.90;;;;;;5021227;28;20060;-78
2022/04/09 05:01:13;;;;;;;1.20;1.10;;;4.70;99.90;;;;;;5020297;28;20029;-78
2022/04/09 05:03:39;;;;;;;0.60;0.60;;;4.60;99.90;;;;;;5004673;28;20084;-77
2022/04/09 05:06:05;;;;;;;0.13;0.13;;;4.50;99.90;;;;;;5005294;28;20049;-78
2022/04/09 05:08:31;;;;;;;0.50;0.50;;;4.50;99.90;;;;;;5021895;28;20044;-78
2022/04/09 05:10:56;;;;;;;1.40;1.07;;;4.50;99.90;;;;;;5022504;28;20497;-78
2022/04/09 05:13:22;;;;;;;1.13;1.03;;;4.50;99.90;;;;;;5021179;28;20029;-78
2022/04/09 05:15:48;;;;;;;0.67;0.50;;;4.50;99.90;;;;;;5021354;28;20049;-78
2022/04/09 05:18:14;;;;;;;1.53;1.40;;;4.50;99.90;;;;;;5018702;28;20492;-78
2022/04/09 05:20:39;;;;;;;1.90;1.20;;;4.50;99.90;;;;;;5020708;28;20038;-79
2022/04/09 05:23:05;;;;;;;4.03;0.77;;;4.50;99.90;;;;;;5007322;28;20049;-79
2022/04/09 05:25:33;;;;;;;13.00;0.93;;;4.50;99.90;;;;;;5002179;28;20038;-79
2022/04/09 05:28:08;;;;;;;1.40;0.47;;;4.50;99.90;;;;;;5002330;28;20103;-79
2022/04/09 05:30:33;;;;;;;1.50;0.40;;;4.50;99.90;;;;;;5002596;28;20041;-79
2022/04/09 05:32:59;;;;;;;0.80;0.80;;;4.50;99.90;;;;;;5001817;28;20072;-79
2022/04/09 05:35:25;;;;;;;1.40;0.87;;;4.60;99.90;;;;;;5001355;28;20147;-79
2022/04/09 05:37:51;;;;;;;2.77;1.77;;;4.60;99.90;;;;;;5002506;28;20042;-79
2022/04/09 05:40:18;;;;;;;3.00;1.13;;;4.60;99.90;;;;;;5002520;28;20041;-80
2022/04/09 05:42:43;;;;;;;1.57;1.40;;;4.60;99.90;;;;;;4984846;28;20037;-79
2022/04/09 05:45:10;;;;;;;0.98;0.82;;;4.60;99.90;;;;;;4990298;28;20454;-80
2022/04/09 05:47:40;;;;;;;2.78;0.98;;;4.70;99.90;;;;;;5022064;28;20037;-79
2022/04/09 05:50:06;;;;;;;0.55;0.55;;;4.70;99.90;;;;;;5021138;28;20120;-79
2022/04/09 05:52:31;;;;;;;15.13;1.02;;;4.80;99.90;;;;;;4983658;28;20038;-79
2022/04/09 05:54:57;;;;;;;1.27;0.70;;;4.80;99.90;;;;;;5003083;28;20045;-79
2022/04/09 05:57:22;;;;;;;5.00;1.23;;;4.90;99.90;;;;;;5002895;28;20050;-79
2022/04/09 05:59:48;;;;;;;6.28;0.90;;;4.90;99.90;;;;;;5021430;28;20449;-80
2022/04/09 06:02:13;;;;;;;0.68;0.68;;;5.00;99.90;;;;;;5009601;28;20496;-79
2022/04/09 06:04:39;;;;;;;0.80;0.77;;;5.10;99.90;;;;;;5019512;28;20053;-79
2022/04/09 06:07:05;;;;;;;0.40;0.40;;;5.00;99.90;;;;;;5022096;28;20045;-82
2022/04/09 06:09:30;;;;;;;6.23;1.13;;;5.00;99.90;;;;;;5019056;28;20089;-80
2022/04/09 06:11:56;;;;;;;5.17;1.03;;;5.00;99.90;;;;;;5021966;28;20419;-78
2022/04/09 06:14:22;;;;;;;0.75;0.65;;;5.00;99.90;;;;;;5021167;28;20124;-79
2022/04/09 06:16:48;;;;;;;2.20;0.93;;;5.00;99.90;;;;;;4997522;28;20044;-80
2022/04/09 06:19:14;;;;;;;1.80;1.10;;;5.00;99.90;;;;;;5013340;28;20046;-82
2022/04/09 06:21:39;;;;;;;21.10;1.95;;;5.00;99.90;;;;;;5006922;28;20508;-83
2022/04/09 06:24:05;;;;;;;13.33;1.57;;;5.10;99.90;;;;;;5008959;28;20369;-83
2022/04/09 06:26:31;;;;;;;5.97;1.05;;;5.10;99.90;;;;;;5019906;28;20095;-83
2022/04/09 06:28:56;;;;;;;3.35;1.23;;;5.10;99.90;;;;;;5010971;28;20042;-84
2022/04/09 06:31:22;;;;;;;0.70;0.67;;;5.20;99.90;;;;;;5016457;28;20057;-84
2022/04/09 06:33:47;;;;;;;2.07;0.73;;;5.20;99.90;;;;;;5000857;28;20072;-84
2022/04/09 06:36:13;;;;;;;1.90;1.70;;;5.30;99.90;;;;;;4999804;28;20069;-84
2022/04/09 06:38:38;;;;;;;0.30;0.30;;;5.30;99.90;;;;;;5001947;28;20048;-84
2022/04/09 06:41:04;;;;;;;22.83;1.00;;;5.30;99.90;;;;;;5020274;28;20049;-84
2022/04/09 06:43:30;;;;;;;0.10;0.10;;;5.30;99.90;;;;;;5003403;28;20056;-79
2022/04/09 06:45:56;;;;;;;3.00;1.13;;;5.30;99.90;;;;;;5020959;28;20041;-80
2022/04/09 06:48:22;;;;;;;8.37;1.63;;;5.30;99.90;;;;;;5019932;28;20076;-81
2022/04/09 06:50:47;;;;;;;1.67;0.95;;;5.30;99.90;;;;;;5021517;28;20045;-81
2022/04/09 06:53:13;;;;;;;0.30;0.30;;;5.30;99.90;;;;;;5019766;28;20041;-81
2022/04/09 06:55:38;;;;;;;0.50;0.50;;;5.30;99.90;;;;;;5020104;28;20480;-75
2022/04/09 06:58:04;;;;;;;0.57;0.57;;;5.30;99.90;;;;;;5019929;28;20692;-83
2022/04/09 07:00:32;;;;;;;1.33;0.82;;;5.30;99.90;;;;;;5010700;28;20091;-81
2022/04/09 07:02:58;;;;;;;6.05;0.98;;;5.30;99.90;;;;;;5020181;28;20073;-83
2022/04/09 07:05:23;;;;;;;7.20;1.87;;;5.30;99.90;;;;;;5020570;28;20033;-83
2022/04/09 07:07:49;;;;;;;0.47;0.47;;;5.40;99.90;;;;;;5013946;28;20041;-83
2022/04/09 07:10:15;;;;;;;4.53;1.65;;;5.40;99.90;;;;;;5013636;28;20099;-85
2022/04/09 07:12:41;;;;;;;1.73;0.47;;;5.40;99.90;;;;;;5024206;28;20033;-84
2022/04/09 07:15:07;;;;;;;1.23;0.65;;;5.50;99.90;;;;;;5023681;28;20730;-83
2022/04/09 07:17:33;;;;;;;5.45;1.35;;;5.60;99.90;;;;;;5021354;28;20041;-83
2022/04/09 07:20:00;;;;;;;1.95;1.08;;;5.70;99.90;;;;;;5012683;28;20215;-83
2022/04/09 07:22:26;;;;;;;0.50;0.50;;;5.70;99.90;;;;;;5023346;28;20126;-83
2022/04/09 07:24:53;;;;;;;1.15;0.63;;;5.80;99.90;;;;;;4997769;28;20045;-85
2022/04/09 07:27:20;;;;;;;6.95;1.05;;;5.90;99.90;;;;;;5013124;28;20089;-84
2022/04/09 07:29:46;;;;;;;1.30;1.20;;;5.90;99.90;;;;;;5023491;28;20053;-84
2022/04/09 07:32:12;;;;;;;1.13;0.88;;;6.00;99.90;;;;;;5023173;28;20045;-84
2022/04/09 07:34:38;;;;;;;17.88;1.15;;;6.00;99.90;;;;;;5022709;28;20048;-81
2022/04/09 07:37:04;;;;;;;2.92;1.13;;;6.00;99.90;;;;;;4997476;28;20057;-84
2022/04/09 07:39:30;;;;;;;1.23;0.70;;;6.00;99.90;;;;;;5022792;28;20045;-83
2022/04/09 07:41:55;;;;;;;1.13;0.65;;;6.10;99.90;;;;;;5022633;28;20069;-84
2022/04/09 07:44:22;;;;;;;2.80;1.40;;;6.10;99.90;;;;;;5022290;28;20498;-83
2022/04/09 07:46:48;;;;;;;2.55;0.68;;;6.10;99.90;;;;;;5023014;28;20037;-83
2022/04/09 07:49:14;;;;;;;4.65;1.75;;;6.10;99.90;;;;;;5021409;28;20049;-83
2022/04/09 07:51:39;;;;;;;1.58;1.15;;;6.10;99.90;;;;;;5023101;28;20091;-83
2022/04/09 07:54:05;;;;;;;0.50;0.50;;;6.10;99.90;;;;;;5023008;28;20046;-84
2022/04/09 07:56:31;;;;;;;0.60;0.52;;;6.20;99.90;;;;;;5027168;28;20049;-83
2022/04/09 07:58:56;;;;;;;0.15;0.15;;;6.20;99.90;;;;;;5022594;28;20376;-83
2022/04/09 08:01:22;;;;;;;1.00;0.45;;;6.20;99.90;;;;;;5019646;28;20045;-84
2022/04/09 08:03:49;;;;;;;1.08;0.98;;;6.30;99.90;;;;;;5013688;28;20535;-83
2022/04/09 08:06:15;;;;;;;10.90;1.05;;;6.20;99.90;;;;;;5022519;28;20168;-84
2022/04/09 08:08:41;;;;;;;3.40;0.98;;;6.30;99.90;;;;;;5022751;28;20076;-86
2022/04/09 08:11:06;;;;;;;1.13;0.65;;;6.30;99.90;;;;;;5023140;28;20081;-84
2022/04/09 08:13:33;;;;;;;0.55;0.55;;;6.30;99.90;;;;;;5029933;28;20037;-84
2022/04/09 08:15:59;;;;;;;0.70;0.70;;;6.40;99.90;;;;;;5042547;28;20041;-85
2022/04/09 08:18:25;;;;;;;3.00;0.75;;;6.50;99.90;;;;;;5036843;28;20503;-85
2022/04/09 08:20:51;;;;;;;1.58;1.35;;;6.50;99.90;;;;;;5022887;28;20046;-85
2022/04/09 08:23:16;;;;;;;1.10;1.00;;;6.50;99.90;;;;;;5023391;28;20496;-85
2022/04/09 08:25:42;;;;;;;3.38;1.30;;;6.50;99.90;;;;;;5023023;28;20145;-84
2022/04/09 08:28:07;;;;;;;0.82;0.80;;;6.50;99.90;;;;;;5006109;28;20064;-83
2022/04/09 08:30:33;;;;;;;3.33;1.48;;;6.60;99.90;;;;;;5005223;28;20045;-85
2022/04/09 08:33:03;;;;;;;6.18;1.27;;;6.60;99.90;;;;;;5022635;28;20045;-84
2022/04/09 08:35:28;;;;;;;4.38;1.35;;;6.70;99.90;;;;;;5022540;28;20148;-84
2022/04/09 08:37:55;;;;;;;0.73;0.73;;;6.70;99.90;;;;;;5022672;28;20129;-85
2022/04/09 08:40:21;;;;;;;2.80;1.02;;;6.70;99.90;;;;;;5022844;28;20116;-85
2022/04/09 08:42:48;;;;;;;0.75;0.47;;;6.70;99.90;;;;;;4989311;28;20107;-85
2022/04/09 08:45:15;;;;;;;5.28;1.35;;;6.80;99.90;;;;;;5021472;28;20826;-85
2022/04/09 08:47:45;;;;;;;0.50;0.43;;;6.80;99.90;;;;;;5016926;28;20052;-85
2022/04/09 08:50:12;;;;;;;0.85;0.85;;;6.80;99.90;;;;;;5016324;28;20112;-87
2022/04/09 08:52:44;;;;;;;2.88;1.25;;;6.80;99.90;;;;;;5004266;28;20402;-86
2022/04/09 08:55:12;;;;;;;1.30;0.40;;;6.80;99.90;;;;;;5005252;28;20076;-85
2022/04/09 08:57:38;;;;;;;3.13;1.33;;;6.90;99.90;;;;;;5020113;28;20699;-83
2022/04/09 09:00:13;;;;;;;0.85;0.85;;;6.90;99.90;;;;;;5018302;28;20069;-85
2022/04/09 09:02:56;;;;;;;0.35;0.35;;;7.00;99.90;;;;;;5008042;28;20079;-86
2022/04/09 09:05:41;;;;;;;0.25;0.25;;;7.00;99.90;;;;;;5001722;28;20526;-85
2022/04/09 09:08:08;;;;;;;0.47;0.47;;;7.00;99.90;;;;;;5019743;28;20428;-86
2022/04/09 09:10:35;;;;;;;3.20;0.35;;;7.00;99.90;;;;;;5020152;28;20049;-85
2022/04/09 09:13:06;;;;;;;0.30;0.30;;;7.10;99.90;;;;;;5018446;28;20037;-86
2022/04/09 09:15:52;;;;;;;7.05;0.88;;;7.10;99.90;;;;;;5024568;28;20137;-87
2022/04/09 09:18:24;;;;;;;1.65;0.98;;;7.10;99.90;;;;;;5005260;28;20080;-89
2022/04/09 09:20:51;;;;;;;6.28;1.63;;;7.20;99.90;;;;;;5005988;28;20488;-88
2022/04/09 09:23:31;;;;;;;1.85;1.45;;;7.20;99.90;;;;;;5019544;28;20061;-87
2022/04/09 09:26:00;;;;;;;4.50;1.02;;;7.20;99.90;;;;;;5017314;28;20121;-87
2022/04/09 09:28:28;;;;;;;0.55;0.55;;;7.30;99.90;;;;;;5006898;28;20053;-86
2022/04/09 09:30:54;;;;;;;0.20;0.20;;;7.20;99.90;;;;;;5011232;28;20504;-86
2022/04/09 09:33:20;;;;;;;1.10;0.90;;;7.10;99.90;;;;;;5013159;28;20659;-84
2022/04/09 09:35:54;;;;;;;0.20;0.20;;;7.00;99.90;;;;;;5019120;28;20049;-84
2022/04/09 09:38:24;;;;;;;0.20;0.20;;;6.90;99.90;;;;;;4991467;28;20046;-84
2022/04/09 09:40:51;;;;;;;0.55;0.52;;;6.90;99.90;;;;;;4984583;28;20088;-83
2022/04/09 09:43:18;;;;;;;2.25;1.17;;;6.80;99.90;;;;;;4987425;28;20042;-84
2022/04/09 09:45:44;;;;;;;0.50;0.50;;;6.60;99.90;;;;;;5019435;28;20036;-84
2022/04/09 09:48:24;;;;;;;14.60;0.77;;;6.40;99.90;;;;;;5004222;28;20049;-84
2022/04/09 09:50:55;;;;;;;22.08;1.55;;;6.30;99.90;;;;;;5020153;28;20202;-84
2022/04/09 09:53:32;;;;;;;3.22;0.98;;;6.20;99.90;;;;;;5003783;28;20049;-84
2022/04/09 09:55:59;;;;;;;5.05;0.90;;;6.20;99.90;;;;;;5018582;28;20475;-81
2022/04/09 09:58:30;;;;;;;10.52;1.33;;;6.10;99.90;;;;;;5019952;28;20045;-84
2022/04/09 10:00:56;;;;;;;3.42;0.73;;;6.20;99.90;;;;;;5020008;28;20112;-84
2022/04/09 10:03:23;;;;;;;2.85;1.30;;;6.20;99.90;;;;;;5016315;28;20038;-84
2022/04/09 10:05:50;;;;;;;2.25;1.20;;;6.30;99.90;;;;;;5016937;28;20321;-83
2022/04/09 10:08:18;;;;;;;0.73;0.73;;;6.40;99.90;;;;;;5019190;28;20041;-84
2022/04/09 10:10:48;;;;;;;0.28;0.28;;;6.50;99.90;;;;;;5019537;28;20053;-85
2022/04/09 10:13:21;;;;;;;9.80;1.80;;;6.60;99.90;;;;;;5019258;28;20033;-84
2022/04/09 10:15:50;;;;;;;0.52;0.52;;;6.70;99.90;;;;;;5011079;28;20270;-85
2022/04/09 10:18:21;;;;;;;1.98;0.95;;;6.80;99.90;;;;;;5018286;28;20118;-86
2022/04/09 10:20:54;;;;;;;0.43;0.40;;;6.80;99.90;;;;;;5017280;28;20060;-84
2022/04/09 10:23:23;;;;;;;0.30;0.30;;;6.90;99.90;;;;;;5009028;28;20504;-88
2022/04/09 10:25:53;;;;;;;0.65;0.57;;;6.90;99.90;;;;;;5006546;28;20056;-92
2022/04/09 10:28:38;;;;;;;1.65;0.88;;;6.90;99.90;;;;;;5013133;28;20460;-88
2022/04/09 10:31:22;;;;;;;4.70;0.30;;;6.90;99.90;;;;;;5020025;28;20041;-84
2022/04/09 10:34:02;;;;;;;0.55;0.55;;;6.90;99.90;;;;;;5004984;28;20115;-88
2022/04/09 10:36:40;;;;;;;3.47;0.75;;;6.90;99.90;;;;;;5018937;28;20049;-82
2022/04/09 10:39:31;;;;;;;1.33;1.20;;;6.90;99.90;;;;;;5019830;28;20093;-87
2022/04/09 10:41:57;;;;;;;0.57;0.57;;;6.90;99.90;;;;;;5011712;28;20474;-82
2022/04/09 10:44:48;;;;;;;1.80;0.60;;;7.00;99.90;;;;;;5023222;28;20064;-85
2022/04/09 10:47:18;;;;;;;11.25;0.90;;;7.00;99.90;;;;;;5020435;28;20045;-87
2022/04/09 10:50:02;;;;;;;8.82;1.02;;;7.10;99.90;;;;;;5020279;28;20499;-85
2022/04/09 10:52:33;;;;;;;0.20;0.20;;;7.20;99.90;;;;;;5024495;28;20077;-82
2022/04/09 10:55:10;;;;;;;0.38;0.38;;;7.30;99.90;;;;;;5025383;28;20309;-87
2022/04/09 10:57:46;;;;;;;2.22;1.42;;;7.40;99.90;;;;;;4995635;28;20057;-87
2022/04/09 11:00:23;;;;;;;2.50;0.30;;;7.30;99.90;;;;;;5007028;28;20084;-86
2022/04/09 11:03:11;;;;;;;3.80;1.25;;;7.20;99.90;;;;;;5009560;28;20053;-86
2022/04/09 11:05:39;;;;;;;3.03;1.38;;;7.10;99.90;;;;;;5018526;28;20332;-88
2022/04/09 11:08:14;;;;;;;7.25;1.15;;;7.10;99.90;;;;;;5001296;28;20057;-87
2022/04/09 11:10:42;;;;;;;0.45;0.45;;;7.20;99.90;;;;;;5006787;28;20061;-87
2022/04/09 11:13:12;;;;;;;1.60;1.08;;;7.30;99.90;;;;;;5024681;28;20060;-86
2022/04/09 11:15:39;;;;;;;2.53;0.95;;;7.40;99.90;;;;;;5018294;28;20079;-86
2022/04/09 11:18:05;;;;;;;2.00;0.50;;;7.30;99.90;;;;;;5025776;28;20051;-87
2022/04/09 11:20:32;;;;;;;0.10;0.10;;;7.20;99.90;;;;;;5027497;28;20045;-89
2022/04/09 11:23:10;;;;;;;1.33;0.47;;;7.20;99.90;;;;;;5006920;28;20092;-86
2022/04/09 11:25:35;;;;;;;4.90;0.75;;;7.20;99.90;;;;;;5024293;28;20048;-86
2022/04/09 11:28:17;;;;;;;0.75;0.75;;;7.10;99.90;;;;;;5024541;28;20037;-90
2022/04/09 11:31:00;;;;;;;0.35;0.35;;;6.90;99.90;;;;;;5023648;28;20451;-84
2022/04/09 11:33:27;;;;;;;0.52;0.52;;;6.80;99.90;;;;;;5016184;28;20447;-78
2022/04/09 11:35:53;;;;;;;0.43;0.22;;;6.70;99.90;;;;;;5013097;28;20037;-82
2022/04/09 11:38:23;;;;;;;1.90;0.70;;;6.60;99.90;;;;;;5012261;28;20041;-84
2022/04/09 11:40:56;;;;;;;0.30;0.30;;;6.50;99.90;;;;;;5021329;28;20103;-84
2022/04/09 11:43:23;;;;;;;0.10;0.10;;;6.50;99.90;;;;;;5019816;28;20036;-81
2022/04/09 11:45:49;;;;;;;0.93;0.65;;;6.50;99.90;;;;;;5018755;28;20041;-82
2022/04/09 11:48:22;;;;;;;0.40;0.40;;;6.50;99.90;;;;;;5018179;28;20038;-85
2022/04/09 11:50:48;;;;;;;10.13;0.65;;;6.50;99.90;;;;;;5020307;28;20033;-82
2022/04/09 11:53:19;;;;;;;0.40;0.40;;;6.50;99.90;;;;;;5013068;28;20099;-81
2022/04/09 11:55:47;;;;;;;0.32;0.32;;;6.50;99.90;;;;;;5007786;28;20045;-82
2022/04/09 11:58:14;;;;;;;0.85;0.60;;;6.60;99.90;;;;;;5018348;28;20081;-79
2022/04/09 12:00:42;;;;;;;3.20;0.93;;;6.70;99.90;;;;;;5022083;28;20091;-82
2022/04/09 12:03:09;;;;;;;0.90;0.70;;;6.70;99.90;;;;;;5017919;28;20061;-84
2022/04/09 12:05:46;;;;;;;0.55;0.35;;;6.80;99.90;;;;;;4994085;28;20066;-87
2022/04/09 12:08:13;;;;;;;0.75;0.20;;;6.80;99.90;;;;;;5011667;28;20037;-84
2022/04/09 12:10:58;;;;;;;0.28;0.28;;;6.90;99.90;;;;;;5020280;28;20053;-84
2022/04/09 12:13:29;;;;;;;0.20;0.20;;;6.90;99.90;;;;;;5010417;28;20484;-85
2022/04/09 12:16:03;;;;;;;0.17;0.17;;;7.00;99.90;;;;;;5020752;28;20045;-84
2022/04/09 12:18:33;;;;;;;0.93;0.82;;;7.00;99.90;;;;;;5010571;28;20049;-82
2022/04/09 12:21:20;;;;;;;3.10;1.27;;;7.00;99.90;;;;;;5011827;28;20081;-84
2022/04/09 12:23:46;;;;;;;3.03;1.02;;;7.10;99.90;;;;;;4994182;28;20061;-89
2022/04/09 12:26:25;;;;;;;0.85;0.52;;;7.20;99.90;;;;;;5021243;28;20091;-83
2022/04/09 12:29:17;;;;;;;2.63;0.98;;;7.20;99.90;;;;;;5021656;28;20504;-80
2022/04/09 12:31:47;;;;;;;0.45;0.32;;;7.30;99.90;;;;;;5011168;28;20120;-81
2022/04/09 12:34:13;;;;;;;0.63;0.63;;;7.20;99.90;;;;;;5014029;28;20112;-81
2022/04/09 12:37:02;;;;;;;0.40;0.40;;;6.90;99.90;;;;;;5003776;28;20038;-84
2022/04/09 12:39:28;;;;;;;3.15;0.70;;;6.60;99.90;;;;;;5014214;28;20041;-82
2022/04/09 12:41:55;;;;;;;4.28;1.00;;;6.50;99.90;;;;;;5019336;28;20056;-79
2022/04/09 12:44:38;;;;;;;1.13;0.82;;;6.40;99.90;;;;;;5020672;28;20087;-80
2022/04/09 12:47:05;;;;;;;3.00;1.38;;;6.50;99.90;;;;;;5011434;28;20029;-79
2022/04/09 12:49:36;;;;;;;1.17;0.82;;;6.60;99.90;;;;;;5020286;28;20600;-79
2022/04/09 12:52:03;;;;;;;1.08;0.93;;;6.70;99.90;;;;;;5020525;28;20037;-79
2022/04/09 12:54:29;;;;;;;0.20;0.20;;;6.70;99.90;;;;;;4986416;28;20073;-78
2022/04/09 12:56:55;;;;;;;0.65;0.65;;;6.70;99.90;;;;;;4988094;28;20494;-79
2022/04/09 12:59:21;;;;;;;0.43;0.43;;;6.60;99.90;;;;;;5020068;28;20117;-79